Venus, Pennsylvania
Current Conditions -  °F | °C
As of 3:15 PM on Wednesday 28 Jan 2015 (Local Time) from KFKL Reporting Station
Clear Clear  
Wind Chill: 17°   Ceiling: Unl
Heat Index: 25°   Visibility: 10mi
Dew Point:   Wind: 7mph
Humidity: 36%   Direction: 270°W
Pressure: 30.26"   Gusts: NA
Location:  41.37°N, 79.48°W
Report Text: KFKL 282015Z AUTO 27006KT 10SM CLR M04/M17 A3026 RMK AO1
Loading
Personal Weather Stations






























Interactive Weather Map New forecast layout! Learn more

10-Day Weather Forecast

Advertisements
Track Severe Weather on mobile